createdAt,value
2018-09-13T00:00:02.969Z,21.77
2018-09-13T00:01:02.836Z,21.76
2018-09-13T00:02:02.769Z,21.76
2018-09-13T00:03:02.445Z,21.77
2018-09-13T00:04:02.896Z,21.77
2018-09-13T00:05:02.426Z,21.76
2018-09-13T00:06:02.620Z,21.76
2018-09-13T00:07:02.808Z,21.77
2018-09-13T00:08:02.785Z,21.76
2018-09-13T00:09:02.802Z,21.77
2018-09-13T00:10:02.902Z,21.77
2018-09-13T00:11:02.767Z,21.76
2018-09-13T00:12:02.641Z,21.76
2018-09-13T00:13:02.535Z,21.76
2018-09-13T00:14:03.001Z,21.75
2018-09-13T00:15:02.550Z,21.76
2018-09-13T00:16:02.800Z,21.77
2018-09-13T00:17:02.520Z,21.76
2018-09-13T00:18:02.771Z,21.75
2018-09-13T00:19:03.129Z,21.75
2018-09-13T00:20:02.579Z,21.76
2018-09-13T00:21:02.833Z,21.75
2018-09-13T00:22:02.959Z,21.77
2018-09-13T00:23:02.931Z,21.76
2018-09-13T00:24:02.799Z,21.76
2018-09-13T00:25:02.527Z,21.77
2018-09-13T00:26:02.639Z,21.76
2018-09-13T00:27:02.493Z,21.76
2018-09-13T00:28:03.033Z,21.76
2018-09-13T00:29:02.656Z,21.76
2018-09-13T00:30:02.833Z,21.75
2018-09-13T00:31:02.664Z,21.75
2018-09-13T00:32:02.640Z,21.74
2018-09-13T00:33:02.610Z,21.76
2018-09-13T00:34:02.849Z,21.74
2018-09-13T00:35:02.531Z,21.76
2018-09-13T00:36:02.605Z,21.75
2018-09-13T00:37:02.864Z,21.75
2018-09-13T00:38:02.795Z,21.76
2018-09-13T00:39:02.791Z,21.75
2018-09-13T00:40:02.522Z,21.75
2018-09-13T00:41:02.519Z,21.75
2018-09-13T00:42:02.655Z,21.76
2018-09-13T00:43:02.862Z,21.75
2018-09-13T00:44:02.679Z,21.73
2018-09-13T00:45:03.073Z,21.74
2018-09-13T00:46:02.833Z,21.74
2018-09-13T00:47:02.459Z,21.74
2018-09-13T00:48:02.607Z,21.75
2018-09-13T00:49:02.797Z,21.74
2018-09-13T00:50:02.579Z,21.74
2018-09-13T00:51:02.832Z,21.74
2018-09-13T00:52:02.693Z,21.74
2018-09-13T00:53:02.748Z,21.73
2018-09-13T00:54:02.567Z,21.74
2018-09-13T00:55:02.617Z,21.76
2018-09-13T00:56:02.698Z,21.76
2018-09-13T00:57:02.774Z,21.74
2018-09-13T00:58:02.640Z,21.74
2018-09-13T00:59:03.175Z,21.75
2018-09-13T01:00:02.797Z,21.75
2018-09-13T01:01:02.451Z,21.77
2018-09-13T01:02:02.541Z,21.74
2018-09-13T01:03:02.458Z,21.72
2018-09-13T01:04:02.469Z,21.75
2018-09-13T01:05:02.628Z,21.72
2018-09-13T01:06:02.626Z,21.75
2018-09-13T01:07:02.542Z,21.74
2018-09-13T01:08:02.598Z,21.73
2018-09-13T01:09:02.813Z,21.74
2018-09-13T01:10:02.516Z,21.75
2018-09-13T01:11:02.532Z,21.74
2018-09-13T01:12:02.654Z,21.74
2018-09-13T01:13:02.706Z,21.75
2018-09-13T01:14:02.408Z,21.74
2018-09-13T01:15:02.646Z,21.74
2018-09-13T01:16:02.665Z,21.74
2018-09-13T01:17:03.405Z,21.74
2018-09-13T01:18:02.592Z,21.73
2018-09-13T01:19:02.517Z,21.74
2018-09-13T01:20:02.805Z,21.7
2018-09-13T01:21:02.594Z,21.73
2018-09-13T01:22:02.547Z,21.73
2018-09-13T01:23:02.779Z,21.74
2018-09-13T01:24:02.737Z,21.73
2018-09-13T01:25:02.491Z,21.73
2018-09-13T01:26:02.910Z,21.73
2018-09-13T01:27:02.482Z,21.74
2018-09-13T01:28:02.572Z,21.72
2018-09-13T01:29:02.718Z,21.74
2018-09-13T01:30:02.785Z,21.72
2018-09-13T01:31:02.544Z,21.74
2018-09-13T01:32:02.577Z,21.74
2018-09-13T01:33:02.703Z,21.72
2018-09-13T01:34:02.611Z,21.73
2018-09-13T01:35:02.781Z,21.73
2018-09-13T01:36:02.526Z,21.74
2018-09-13T01:37:02.553Z,21.72
2018-09-13T01:38:02.789Z,21.74
2018-09-13T01:39:03.036Z,21.72
2018-09-13T01:40:02.881Z,21.72
2018-09-13T01:41:02.902Z,21.73
2018-09-13T01:42:02.816Z,21.74
2018-09-13T01:43:02.685Z,21.72
2018-09-13T01:44:02.541Z,21.69
2018-09-13T01:45:02.855Z,21.72
2018-09-13T01:46:02.737Z,21.73
2018-09-13T01:47:02.770Z,21.7
2018-09-13T01:48:02.894Z,21.7
2018-09-13T01:49:02.370Z,21.72
2018-09-13T01:50:02.839Z,21.72
2018-09-13T01:51:02.585Z,21.73
2018-09-13T01:52:02.520Z,21.73
2018-09-13T01:53:02.563Z,21.73
2018-09-13T01:54:02.471Z,21.74
2018-09-13T01:55:02.811Z,21.73
2018-09-13T01:56:02.544Z,21.72
2018-09-13T01:57:02.825Z,21.73
2018-09-13T01:58:02.840Z,21.7
2018-09-13T01:59:02.780Z,21.7
2018-09-13T02:00:02.481Z,21.72
2018-09-13T02:01:02.929Z,21.7
2018-09-13T02:02:02.892Z,21.74
2018-09-13T02:03:02.952Z,21.75
2018-09-13T02:04:02.751Z,21.74
2018-09-13T02:05:02.654Z,21.72
2018-09-13T02:06:02.536Z,21.7
2018-09-13T02:07:02.853Z,21.72
2018-09-13T02:08:02.413Z,21.7
2018-09-13T02:09:02.810Z,21.7
2018-09-13T02:10:02.802Z,21.74
2018-09-13T02:11:02.599Z,21.7
2018-09-13T02:12:02.538Z,21.7
2018-09-13T02:13:02.826Z,21.7
2018-09-13T02:14:02.495Z,21.7
2018-09-13T02:15:02.793Z,21.72
2018-09-13T02:16:02.845Z,21.73
2018-09-13T02:17:02.738Z,21.7
2018-09-13T02:18:02.841Z,21.7
2018-09-13T02:19:02.581Z,21.73
2018-09-13T02:20:02.535Z,21.72
2018-09-13T02:21:02.540Z,21.7
2018-09-13T02:22:02.483Z,21.72
2018-09-13T02:23:02.675Z,21.73
2018-09-13T02:24:02.771Z,21.72
2018-09-13T02:25:02.653Z,21.7
2018-09-13T02:26:02.911Z,21.68
2018-09-13T02:27:02.662Z,21.69
2018-09-13T02:28:02.444Z,21.7
2018-09-13T02:29:02.624Z,21.7
2018-09-13T02:30:02.504Z,21.73
2018-09-13T02:31:02.604Z,21.72
2018-09-13T02:32:02.707Z,21.69
2018-09-13T02:33:02.514Z,21.72
2018-09-13T02:34:02.589Z,21.7
2018-09-13T02:35:02.897Z,21.72
2018-09-13T02:36:02.769Z,21.72
2018-09-13T02:37:02.816Z,21.7
2018-09-13T02:38:02.715Z,21.7
2018-09-13T02:39:02.693Z,21.68
2018-09-13T02:40:02.580Z,21.72
2018-09-13T02:41:02.648Z,21.68
2018-09-13T02:42:02.689Z,21.7
2018-09-13T02:43:02.516Z,21.69
2018-09-13T02:44:02.713Z,21.69
2018-09-13T02:45:02.768Z,21.7
2018-09-13T02:46:02.585Z,21.7
2018-09-13T02:47:02.620Z,21.7
2018-09-13T02:48:03.062Z,21.7
2018-09-13T02:49:02.968Z,21.7
2018-09-13T02:50:02.856Z,21.69
2018-09-13T02:51:02.676Z,21.69
2018-09-13T02:52:02.905Z,21.7
2018-09-13T02:53:02.625Z,21.72
2018-09-13T02:54:02.523Z,21.72
2018-09-13T02:55:02.490Z,21.7
2018-09-13T02:56:02.607Z,21.7
2018-09-13T02:57:02.831Z,21.7
2018-09-13T02:58:02.767Z,21.69
2018-09-13T02:59:02.796Z,21.69
2018-09-13T03:00:02.727Z,21.69
2018-09-13T03:01:02.801Z,21.73
2018-09-13T03:02:02.869Z,21.7
2018-09-13T03:03:02.514Z,21.7
2018-09-13T03:04:02.601Z,21.69
2018-09-13T03:05:02.895Z,21.7
2018-09-13T03:06:02.807Z,21.69
2018-09-13T03:07:02.528Z,21.69
2018-09-13T03:08:02.561Z,21.68
2018-09-13T03:09:02.982Z,21.7
2018-09-13T03:10:02.753Z,21.7
2018-09-13T03:11:02.752Z,21.7
2018-09-13T03:12:02.750Z,21.69
2018-09-13T03:13:02.714Z,21.7
2018-09-13T03:14:02.478Z,21.7
2018-09-13T03:15:02.564Z,21.69
2018-09-13T03:16:02.777Z,21.7
2018-09-13T03:17:02.731Z,21.68
2018-09-13T03:18:02.821Z,21.69
2018-09-13T03:19:02.815Z,21.69
2018-09-13T03:20:02.663Z,21.69
2018-09-13T03:21:02.770Z,21.72
2018-09-13T03:22:02.697Z,21.7
2018-09-13T03:23:02.648Z,21.7
2018-09-13T03:24:02.817Z,21.7
2018-09-13T03:25:02.806Z,21.7
2018-09-13T03:26:02.544Z,21.68
2018-09-13T03:27:02.793Z,21.69
2018-09-13T03:28:02.644Z,21.69
2018-09-13T03:29:02.755Z,21.68
2018-09-13T03:30:02.593Z,21.7
2018-09-13T03:31:02.988Z,21.7
2018-09-13T03:32:02.676Z,21.69
2018-09-13T03:33:02.498Z,21.69
2018-09-13T03:34:02.640Z,21.7
2018-09-13T03:35:02.767Z,21.68
2018-09-13T03:36:03.010Z,21.69
2018-09-13T03:37:02.850Z,21.7
2018-09-13T03:38:02.472Z,21.68
2018-09-13T03:39:02.673Z,21.69
2018-09-13T03:40:03.039Z,21.68
2018-09-13T03:41:02.820Z,21.68
2018-09-13T03:42:03.311Z,21.7
2018-09-13T03:43:02.548Z,21.69
2018-09-13T03:44:02.463Z,21.68
2018-09-13T03:45:02.660Z,21.7
2018-09-13T03:46:02.565Z,21.69
2018-09-13T03:47:02.495Z,21.68
2018-09-13T03:48:02.536Z,21.69
2018-09-13T03:49:02.423Z,21.7
2018-09-13T03:50:02.497Z,21.68
2018-09-13T03:51:02.588Z,21.7
2018-09-13T03:52:02.417Z,21.68
2018-09-13T03:53:02.435Z,21.7
2018-09-13T03:54:02.425Z,21.69
2018-09-13T03:55:02.425Z,21.68
2018-09-13T03:56:02.551Z,21.69
2018-09-13T03:57:02.455Z,21.67
2018-09-13T03:58:02.741Z,21.69
2018-09-13T03:59:02.475Z,21.7
2018-09-13T04:00:02.496Z,21.67
2018-09-13T04:01:02.630Z,21.68
2018-09-13T04:02:02.736Z,21.7
2018-09-13T04:03:02.662Z,21.69
2018-09-13T04:04:03.050Z,21.66
2018-09-13T04:05:02.667Z,21.69
2018-09-13T04:06:02.649Z,21.68
2018-09-13T04:07:02.721Z,21.68
2018-09-13T04:08:02.943Z,21.69
2018-09-13T04:09:03.156Z,21.69
2018-09-13T04:10:02.827Z,21.69
2018-09-13T04:11:02.558Z,21.69
2018-09-13T04:12:02.567Z,21.68
2018-09-13T04:13:02.632Z,21.7
2018-09-13T04:14:02.922Z,21.69
2018-09-13T04:15:02.688Z,21.67
2018-09-13T04:16:02.512Z,21.7
2018-09-13T04:17:02.385Z,21.68
2018-09-13T04:18:02.538Z,21.69
2018-09-13T04:19:02.909Z,21.69
2018-09-13T04:20:02.646Z,21.68
2018-09-13T04:21:02.663Z,21.69
2018-09-13T04:22:02.786Z,21.7
2018-09-13T04:23:02.774Z,21.68
2018-09-13T04:24:02.536Z,21.67
2018-09-13T04:25:02.803Z,21.7
2018-09-13T04:26:02.571Z,21.68
2018-09-13T04:27:02.562Z,21.69
2018-09-13T04:28:02.961Z,21.69
2018-09-13T04:29:02.591Z,21.66
2018-09-13T04:30:02.602Z,21.67
2018-09-13T04:31:02.742Z,21.68
2018-09-13T04:32:02.741Z,21.67
2018-09-13T04:33:02.886Z,21.7
2018-09-13T04:34:02.863Z,21.69
2018-09-13T04:35:02.697Z,21.67
2018-09-13T04:36:03.065Z,21.68
2018-09-13T04:37:02.786Z,21.69
2018-09-13T04:38:02.375Z,21.66
2018-09-13T04:39:02.584Z,21.67
2018-09-13T04:40:02.873Z,21.67
2018-09-13T04:41:02.793Z,21.68
2018-09-13T04:42:02.791Z,21.7
2018-09-13T04:43:02.726Z,21.69
2018-09-13T04:44:02.433Z,21.68
2018-09-13T04:45:03.043Z,21.66
2018-09-13T04:46:02.582Z,21.67
2018-09-13T04:47:02.703Z,21.67
2018-09-13T04:48:02.362Z,21.66
2018-09-13T04:49:02.632Z,21.67
2018-09-13T04:50:02.633Z,21.67
2018-09-13T04:51:02.671Z,21.68
2018-09-13T04:52:02.931Z,21.68
2018-09-13T04:53:02.724Z,21.67
2018-09-13T04:54:03.106Z,21.67
2018-09-13T04:55:02.747Z,21.68
2018-09-13T04:56:02.484Z,21.68
2018-09-13T04:57:02.821Z,21.66
2018-09-13T04:58:02.599Z,21.67
2018-09-13T04:59:02.708Z,21.69
2018-09-13T05:00:02.770Z,21.67
2018-09-13T05:01:02.539Z,21.67
2018-09-13T05:02:02.435Z,21.67
2018-09-13T05:03:02.686Z,21.68
2018-09-13T05:04:02.736Z,21.69
2018-09-13T05:05:02.726Z,21.66
2018-09-13T05:06:02.763Z,21.67
2018-09-13T05:07:02.430Z,21.69
2018-09-13T05:08:02.740Z,21.68
2018-09-13T05:09:02.542Z,21.66
2018-09-13T05:10:03.228Z,21.67
2018-09-13T05:11:02.449Z,21.68
2018-09-13T05:12:02.635Z,21.67
2018-09-13T05:13:02.841Z,21.66
2018-09-13T05:14:02.748Z,21.66
2018-09-13T05:15:02.865Z,21.67
2018-09-13T05:16:02.873Z,21.67
2018-09-13T05:17:02.588Z,21.67
2018-09-13T05:18:02.791Z,21.69
2018-09-13T05:19:02.708Z,21.66
2018-09-13T05:20:02.766Z,21.66
2018-09-13T05:21:02.486Z,21.66
2018-09-13T05:22:02.695Z,21.67
2018-09-13T05:23:02.416Z,21.67
2018-09-13T05:24:02.592Z,21.69
2018-09-13T05:25:02.739Z,21.66
2018-09-13T05:26:02.771Z,21.67
2018-09-13T05:27:03.047Z,21.67
2018-09-13T05:28:02.750Z,21.67
2018-09-13T05:29:02.761Z,21.66
2018-09-13T05:30:02.520Z,21.68
2018-09-13T05:31:02.786Z,21.66
2018-09-13T05:32:02.722Z,21.65
2018-09-13T05:33:02.525Z,21.66
2018-09-13T05:34:02.949Z,21.66
2018-09-13T05:35:02.833Z,21.68
2018-09-13T05:36:02.746Z,21.66
2018-09-13T05:37:02.885Z,21.67
2018-09-13T05:38:02.402Z,21.66
2018-09-13T05:39:03.103Z,21.65
2018-09-13T05:40:02.824Z,21.66
2018-09-13T05:41:02.474Z,21.66
2018-09-13T05:42:02.686Z,21.66
2018-09-13T05:43:02.759Z,21.66
2018-09-13T05:44:02.800Z,21.67
2018-09-13T05:45:02.598Z,21.67
2018-09-13T05:46:02.738Z,21.67
2018-09-13T05:47:02.820Z,21.67
2018-09-13T05:48:02.595Z,21.68
2018-09-13T05:49:02.760Z,21.67
2018-09-13T05:50:02.690Z,21.69
2018-09-13T05:51:02.874Z,21.66
2018-09-13T05:52:02.518Z,21.67
2018-09-13T05:53:02.570Z,21.66
2018-09-13T05:54:02.473Z,21.65
2018-09-13T05:55:02.537Z,21.66
2018-09-13T05:56:02.404Z,21.66
2018-09-13T05:57:02.656Z,21.67
2018-09-13T05:58:02.537Z,21.66
2018-09-13T05:59:02.612Z,21.65
2018-09-13T06:00:02.805Z,21.65
2018-09-13T06:01:03.178Z,21.67
2018-09-13T06:02:02.698Z,21.66
2018-09-13T06:03:02.393Z,21.64
2018-09-13T06:04:02.531Z,21.67
2018-09-13T06:05:02.467Z,21.66
2018-09-13T06:06:02.642Z,21.69
2018-09-13T06:07:02.501Z,21.67
2018-09-13T06:08:02.845Z,21.66
2018-09-13T06:09:02.439Z,21.66
2018-09-13T06:10:02.639Z,21.66
2018-09-13T06:11:02.453Z,21.66
2018-09-13T06:12:02.353Z,21.66
2018-09-13T06:13:02.736Z,21.66
2018-09-13T06:14:02.908Z,21.66
2018-09-13T06:15:02.961Z,21.66
2018-09-13T06:16:02.506Z,21.67
2018-09-13T06:17:02.496Z,21.67
2018-09-13T06:18:02.756Z,21.66
2018-09-13T06:19:02.817Z,21.67
2018-09-13T06:20:02.460Z,21.67
2018-09-13T06:21:02.688Z,21.67
2018-09-13T06:22:02.435Z,21.65
2018-09-13T06:23:02.447Z,21.66
2018-09-13T06:24:02.839Z,21.65
2018-09-13T06:25:02.809Z,21.65
2018-09-13T06:26:02.707Z,21.66
2018-09-13T06:27:02.684Z,21.65
2018-09-13T06:28:02.810Z,21.65
2018-09-13T06:29:02.545Z,21.66
2018-09-13T06:30:02.377Z,21.66
2018-09-13T06:31:02.489Z,21.66
2018-09-13T06:32:02.569Z,21.67
2018-09-13T06:33:02.864Z,21.66
2018-09-13T06:34:02.552Z,21.66
2018-09-13T06:35:02.708Z,21.65
2018-09-13T06:36:02.864Z,21.67
2018-09-13T06:37:02.499Z,21.66
2018-09-13T06:38:02.740Z,21.66
2018-09-13T06:39:02.561Z,21.65
2018-09-13T06:40:02.626Z,21.65
2018-09-13T06:41:02.612Z,21.66
2018-09-13T06:42:02.716Z,21.66
2018-09-13T06:43:02.864Z,21.66
2018-09-13T06:44:02.677Z,21.66
2018-09-13T06:45:02.625Z,21.65
2018-09-13T06:46:02.595Z,21.65
2018-09-13T06:47:02.869Z,21.63
2018-09-13T06:48:03.113Z,21.65
2018-09-13T06:49:02.769Z,21.66
2018-09-13T06:50:02.463Z,21.67
2018-09-13T06:51:02.510Z,21.67
2018-09-13T06:52:02.573Z,21.67
2018-09-13T06:53:02.581Z,21.67
2018-09-13T06:54:02.803Z,21.64
2018-09-13T06:55:02.708Z,21.65
2018-09-13T06:56:02.759Z,21.66
2018-09-13T06:57:02.799Z,21.66
2018-09-13T06:58:02.881Z,21.65
2018-09-13T06:59:02.387Z,21.67
2018-09-13T07:00:02.482Z,21.65
2018-09-13T07:01:02.661Z,21.66
2018-09-13T07:02:02.572Z,21.64
2018-09-13T07:03:02.648Z,21.65
2018-09-13T07:04:02.613Z,21.66
2018-09-13T07:05:02.616Z,21.65
2018-09-13T07:06:02.550Z,21.65
2018-09-13T07:07:02.760Z,21.64
2018-09-13T07:08:02.547Z,21.63
2018-09-13T07:09:03.223Z,21.65
2018-09-13T07:10:02.601Z,21.65
2018-09-13T07:11:02.819Z,21.65
2018-09-13T07:12:02.519Z,21.65
2018-09-13T07:13:02.404Z,21.66
2018-09-13T07:14:02.828Z,21.66
2018-09-13T07:15:02.464Z,21.63
2018-09-13T07:16:02.362Z,21.66
2018-09-13T07:17:02.425Z,21.66
2018-09-13T07:18:02.522Z,21.64
2018-09-13T07:19:02.342Z,21.65
2018-09-13T07:20:02.615Z,21.65
2018-09-13T07:21:02.566Z,21.64
2018-09-13T07:22:02.652Z,21.66
2018-09-13T07:23:02.363Z,21.66
2018-09-13T07:24:02.621Z,21.63
2018-09-13T07:25:02.544Z,21.65
2018-09-13T07:26:02.612Z,21.66
2018-09-13T07:27:02.610Z,21.63
2018-09-13T07:28:02.521Z,21.64
2018-09-13T07:29:02.721Z,21.63
2018-09-13T07:30:02.502Z,21.64
2018-09-13T07:31:03.161Z,21.64
2018-09-13T07:32:02.447Z,21.64
2018-09-13T07:33:02.486Z,21.66
2018-09-13T07:34:02.506Z,21.64
2018-09-13T07:35:02.758Z,21.65
2018-09-13T07:36:02.559Z,21.65
2018-09-13T07:37:02.623Z,21.65
2018-09-13T07:38:02.436Z,21.67
2018-09-13T07:39:02.440Z,21.64
2018-09-13T07:40:02.899Z,21.65
2018-09-13T07:41:02.829Z,21.65
2018-09-13T07:42:02.589Z,21.65
2018-09-13T07:43:02.819Z,21.65
2018-09-13T07:44:02.468Z,21.63
2018-09-13T07:45:02.637Z,21.62
2018-09-13T07:46:02.772Z,21.64
2018-09-13T07:47:02.447Z,21.6
2018-09-13T07:48:02.507Z,21.51
2018-09-13T07:49:03.132Z,21.45
2018-09-13T07:50:02.644Z,21.4
2018-09-13T07:51:02.845Z,21.39
2018-09-13T07:52:02.723Z,21.33
2018-09-13T07:53:02.612Z,21.32
2018-09-13T07:54:02.362Z,21.23
2018-09-13T07:55:02.791Z,21.22
2018-09-13T07:56:02.657Z,21.23
2018-09-13T07:57:03.403Z,21.24
2018-09-13T07:58:02.568Z,21.24
2018-09-13T07:59:02.543Z,21.29
2018-09-13T08:00:02.458Z,21.35
2018-09-13T08:01:02.746Z,21.4
2018-09-13T08:02:02.437Z,21.39
2018-09-13T08:03:02.454Z,21.43
2018-09-13T08:04:02.601Z,21.44
2018-09-13T08:05:03.064Z,21.45
2018-09-13T08:06:03.173Z,21.43
2018-09-13T08:07:02.917Z,21.45
2018-09-13T08:08:02.522Z,21.46
2018-09-13T08:09:02.451Z,21.48
2018-09-13T08:10:02.523Z,21.5
2018-09-13T08:11:02.571Z,21.51
2018-09-13T08:12:03.295Z,21.5
2018-09-13T08:13:02.720Z,21.53
2018-09-13T08:14:02.524Z,21.54
2018-09-13T08:15:03.091Z,21.55
2018-09-13T08:16:02.779Z,21.55
2018-09-13T08:17:02.614Z,21.59
2018-09-13T08:18:02.336Z,21.59
2018-09-13T08:19:02.612Z,21.6
2018-09-13T08:20:02.525Z,21.6
2018-09-13T08:21:02.939Z,21.61
2018-09-13T08:22:03.770Z,21.63
2018-09-13T08:23:02.991Z,21.63
2018-09-13T08:24:02.790Z,21.63
2018-09-13T08:25:02.360Z,21.64
2018-09-13T08:26:02.362Z,21.64
2018-09-13T08:27:02.942Z,21.64
2018-09-13T08:28:02.414Z,21.65
2018-09-13T08:29:02.726Z,21.63
2018-09-13T08:30:02.472Z,21.67
2018-09-13T08:31:02.764Z,21.67
2018-09-13T08:32:02.798Z,21.69
2018-09-13T08:33:02.766Z,21.7
2018-09-13T08:34:02.790Z,21.69
2018-09-13T08:35:03.596Z,21.69
2018-09-13T08:36:02.595Z,21.7
2018-09-13T08:37:03.063Z,21.7
2018-09-13T08:38:02.371Z,21.72
2018-09-13T08:39:02.351Z,21.74
2018-09-13T08:40:02.857Z,21.72
2018-09-13T08:41:02.473Z,21.74
2018-09-13T08:42:02.641Z,21.74
2018-09-13T08:43:02.927Z,21.75
2018-09-13T08:44:02.590Z,21.75
2018-09-13T08:45:02.568Z,21.74
2018-09-13T08:46:02.710Z,21.74
2018-09-13T08:47:02.604Z,21.78
2018-09-13T08:48:02.463Z,21.76
2018-09-13T08:49:02.400Z,21.79
2018-09-13T08:50:02.212Z,21.78
2018-09-13T08:51:02.446Z,21.77
2018-09-13T08:52:02.986Z,21.8
2018-09-13T08:53:02.413Z,21.77
2018-09-13T08:54:02.989Z,21.8
2018-09-13T08:55:02.867Z,21.79
2018-09-13T08:56:02.791Z,21.8
2018-09-13T08:57:02.664Z,21.82
2018-09-13T08:58:02.612Z,21.85
2018-09-13T08:59:02.484Z,21.8
2018-09-13T09:00:02.420Z,21.8
2018-09-13T09:01:02.818Z,21.77
2018-09-13T09:02:02.746Z,21.8
2018-09-13T09:03:02.824Z,21.8
2018-09-13T09:04:02.559Z,21.81
2018-09-13T09:05:02.491Z,21.79
2018-09-13T09:06:02.770Z,21.79
2018-09-13T09:07:02.636Z,21.78
2018-09-13T09:08:02.489Z,21.77
2018-09-13T09:09:02.572Z,21.77
2018-09-13T09:10:02.838Z,21.76
2018-09-13T09:11:02.895Z,21.77
2018-09-13T09:12:03.331Z,21.76
2018-09-13T09:13:02.409Z,21.77
2018-09-13T09:14:02.988Z,21.76
2018-09-13T09:15:02.569Z,21.76
2018-09-13T09:16:02.768Z,21.77
2018-09-13T09:17:02.700Z,21.77
2018-09-13T09:18:02.748Z,21.74
2018-09-13T09:19:03.142Z,21.75
2018-09-13T09:20:02.800Z,21.75
2018-09-13T09:21:02.474Z,21.75
2018-09-13T09:22:02.380Z,21.75
2018-09-13T09:23:02.668Z,21.74
2018-09-13T09:24:02.923Z,21.74
2018-09-13T09:25:02.757Z,21.74
2018-09-13T09:26:02.886Z,21.73
2018-09-13T09:27:02.593Z,21.74
2018-09-13T09:28:02.549Z,21.74
2018-09-13T09:29:03.019Z,21.72
2018-09-13T09:30:02.507Z,21.74
2018-09-13T09:31:02.687Z,21.73
2018-09-13T09:32:02.364Z,21.74
2018-09-13T09:33:02.722Z,21.75
2018-09-13T09:34:02.719Z,21.74
2018-09-13T09:35:02.871Z,21.73
2018-09-13T09:36:02.689Z,21.72
2018-09-13T09:37:02.463Z,21.73
2018-09-13T09:38:02.683Z,21.72
2018-09-13T09:39:02.604Z,21.72
2018-09-13T09:40:02.505Z,21.74
2018-09-13T09:41:02.454Z,21.72
2018-09-13T09:42:02.375Z,21.74
2018-09-13T09:43:02.540Z,21.7
2018-09-13T09:44:03.069Z,21.73
2018-09-13T09:45:03.733Z,21.7
2018-09-13T09:46:02.796Z,21.7
2018-09-13T09:47:02.811Z,21.7
2018-09-13T09:48:02.979Z,21.7
2018-09-13T09:49:02.645Z,21.7
2018-09-13T09:50:02.637Z,21.7
2018-09-13T09:51:02.516Z,21.72
2018-09-13T09:52:03.016Z,21.7
2018-09-13T09:53:02.738Z,21.7
2018-09-13T09:54:02.742Z,21.69
2018-09-13T09:55:02.534Z,21.7
2018-09-13T09:56:03.002Z,21.7
2018-09-13T09:57:02.443Z,21.67
2018-09-13T09:58:03.541Z,21.68
2018-09-13T09:59:02.509Z,21.7
2018-09-13T10:00:02.411Z,21.68
2018-09-13T10:01:02.820Z,21.7
2018-09-13T10:02:02.484Z,21.68
2018-09-13T10:03:03.015Z,21.67
2018-09-13T10:04:02.426Z,21.68
2018-09-13T10:05:02.497Z,21.68
2018-09-13T10:06:02.334Z,21.69
2018-09-13T10:07:02.381Z,21.7
2018-09-13T10:08:02.435Z,21.66
2018-09-13T10:09:02.835Z,21.68
2018-09-13T10:10:02.597Z,21.68
2018-09-13T10:11:02.374Z,21.66
2018-09-13T10:12:02.733Z,21.69
2018-09-13T10:13:02.346Z,21.69
2018-09-13T10:14:02.537Z,21.7
2018-09-13T10:15:02.651Z,21.68
2018-09-13T10:16:02.725Z,21.68
2018-09-13T10:17:02.559Z,21.68
2018-09-13T10:18:02.537Z,21.67
2018-09-13T10:19:02.418Z,21.69
2018-09-13T10:20:02.821Z,21.68
2018-09-13T10:21:02.478Z,21.68
2018-09-13T10:22:02.475Z,21.7
2018-09-13T10:23:03.451Z,21.67
2018-09-13T10:24:02.656Z,21.69
2018-09-13T10:25:02.658Z,21.67
2018-09-13T10:26:02.288Z,21.72
2018-09-13T10:27:03.357Z,21.69
2018-09-13T10:28:02.708Z,21.68
2018-09-13T10:29:02.483Z,21.68
2018-09-13T10:30:02.320Z,21.7
2018-09-13T10:31:02.739Z,21.67
2018-09-13T10:32:02.804Z,21.68
2018-09-13T10:33:03.128Z,21.67
2018-09-13T10:34:02.627Z,21.67
2018-09-13T10:35:02.568Z,21.68
2018-09-13T10:36:02.513Z,21.66
2018-09-13T10:37:02.723Z,21.67
2018-09-13T10:38:02.466Z,21.67
2018-09-13T10:39:02.560Z,21.68
2018-09-13T10:40:02.778Z,21.67
2018-09-13T10:41:02.560Z,21.7
2018-09-13T10:42:02.893Z,21.67
2018-09-13T10:43:02.933Z,21.69
2018-09-13T10:44:02.779Z,21.68
2018-09-13T10:45:02.491Z,21.66
2018-09-13T10:46:02.830Z,21.68
2018-09-13T10:47:02.793Z,21.66
2018-09-13T10:48:03.164Z,21.66
2018-09-13T10:49:02.837Z,21.68
2018-09-13T10:50:02.526Z,21.69
2018-09-13T10:51:02.999Z,21.66
2018-09-13T10:52:02.431Z,21.67
2018-09-13T10:53:02.617Z,21.66
2018-09-13T10:54:02.616Z,21.65
2018-09-13T10:55:02.655Z,21.7
2018-09-13T10:56:02.862Z,21.68
2018-09-13T10:57:02.599Z,21.67
2018-09-13T10:58:02.655Z,21.66
2018-09-13T10:59:02.855Z,21.67
2018-09-13T11:00:02.444Z,21.67
2018-09-13T11:01:02.626Z,21.68
2018-09-13T11:02:02.595Z,21.68
2018-09-13T11:03:02.501Z,21.67
2018-09-13T11:04:03.094Z,21.67
2018-09-13T11:05:02.499Z,21.68
2018-09-13T11:06:02.437Z,21.66
2018-09-13T11:07:02.491Z,21.67
2018-09-13T11:08:02.366Z,21.68
2018-09-13T11:09:02.475Z,21.66
2018-09-13T11:10:02.375Z,21.67
2018-09-13T11:11:04.257Z,21.67
2018-09-13T11:12:02.811Z,21.67
2018-09-13T11:13:02.749Z,21.69
2018-09-13T11:14:03.001Z,21.69
2018-09-13T11:15:02.651Z,21.66
2018-09-13T11:16:02.447Z,21.68
2018-09-13T11:17:02.351Z,21.68
2018-09-13T11:18:02.431Z,21.67
2018-09-13T11:19:02.455Z,21.69
2018-09-13T11:20:02.712Z,21.66
2018-09-13T11:21:02.531Z,21.67
2018-09-13T11:22:02.960Z,21.67
2018-09-13T11:23:02.443Z,21.68
2018-09-13T11:24:02.643Z,21.67
2018-09-13T11:25:02.409Z,21.69
2018-09-13T11:26:02.405Z,21.68
2018-09-13T11:27:02.491Z,21.67
2018-09-13T11:28:02.429Z,21.68
2018-09-13T11:29:02.478Z,21.68
2018-09-13T11:30:02.448Z,21.68
2018-09-13T11:31:02.489Z,21.69
2018-09-13T11:32:02.356Z,21.68
2018-09-13T11:33:02.322Z,21.69
2018-09-13T11:34:02.473Z,21.68
2018-09-13T11:35:02.536Z,21.66
2018-09-13T11:36:02.577Z,21.69
2018-09-13T11:37:02.527Z,21.68
2018-09-13T11:38:02.517Z,21.68
2018-09-13T11:39:02.425Z,21.67
2018-09-13T11:40:02.975Z,21.7
2018-09-13T11:41:03.635Z,21.7
2018-09-13T11:42:02.446Z,21.68
2018-09-13T11:43:02.388Z,21.69
2018-09-13T11:44:02.617Z,21.7
2018-09-13T11:45:02.544Z,21.68
2018-09-13T11:46:02.482Z,21.69
2018-09-13T11:47:02.875Z,21.66
2018-09-13T11:48:02.946Z,21.69
2018-09-13T11:49:02.415Z,21.69
2018-09-13T11:50:02.503Z,21.69
2018-09-13T11:51:02.310Z,21.69
2018-09-13T11:52:02.468Z,21.67
2018-09-13T11:53:02.534Z,21.68
2018-09-13T11:54:02.965Z,21.66
2018-09-13T11:55:02.540Z,21.68
2018-09-13T11:56:02.800Z,21.68
2018-09-13T11:57:02.531Z,21.68
2018-09-13T11:58:02.729Z,21.67
2018-09-13T11:59:02.376Z,21.67
2018-09-13T12:00:02.386Z,21.68
2018-09-13T12:01:02.727Z,21.67
2018-09-13T12:02:03.156Z,21.68
2018-09-13T12:03:02.500Z,21.68
2018-09-13T12:04:02.514Z,21.67
2018-09-13T12:05:02.663Z,21.69
2018-09-13T12:06:02.634Z,21.68
2018-09-13T12:07:02.463Z,21.68
2018-09-13T12:08:02.546Z,21.67
2018-09-13T12:09:02.758Z,21.69
2018-09-13T12:10:02.520Z,21.66
2018-09-13T12:11:02.715Z,21.68
2018-09-13T12:12:02.571Z,21.67
2018-09-13T12:13:02.599Z,21.67
2018-09-13T12:14:02.560Z,21.67
2018-09-13T12:15:03.779Z,21.69
2018-09-13T12:16:02.464Z,21.69
2018-09-13T12:17:02.509Z,21.67
2018-09-13T12:18:03.437Z,21.68
2018-09-13T12:19:02.467Z,21.67
2018-09-13T12:20:02.762Z,21.68
2018-09-13T12:21:03.144Z,21.69
2018-09-13T12:22:02.420Z,21.67
2018-09-13T12:23:02.531Z,21.67
2018-09-13T12:24:02.425Z,21.68
2018-09-13T12:25:02.502Z,21.67
2018-09-13T12:26:02.624Z,21.7
2018-09-13T12:27:02.670Z,21.66
2018-09-13T12:28:02.330Z,21.66
2018-09-13T12:29:02.533Z,21.67
2018-09-13T12:30:02.595Z,21.66
2018-09-13T12:31:02.508Z,21.66
2018-09-13T12:32:02.288Z,21.65
2018-09-13T12:33:02.978Z,21.66
2018-09-13T12:34:02.744Z,21.68
2018-09-13T12:35:02.524Z,21.68
2018-09-13T12:36:02.287Z,21.68
2018-09-13T12:37:02.619Z,21.67
2018-09-13T12:38:02.379Z,21.68
2018-09-13T12:39:02.360Z,21.67
2018-09-13T12:40:02.564Z,21.66
2018-09-13T12:41:02.491Z,21.69
2018-09-13T12:42:02.409Z,21.68
2018-09-13T12:43:02.816Z,21.66
2018-09-13T12:44:02.385Z,21.66
2018-09-13T12:45:02.876Z,21.66
2018-09-13T12:46:02.836Z,21.66
2018-09-13T12:47:03.725Z,21.68
2018-09-13T12:48:02.439Z,21.68
2018-09-13T12:49:02.817Z,21.67
2018-09-13T12:50:03.073Z,21.68
2018-09-13T12:51:02.821Z,21.66
2018-09-13T12:52:02.537Z,21.68
2018-09-13T12:53:02.539Z,21.66
2018-09-13T12:54:02.358Z,21.66
2018-09-13T12:55:02.454Z,21.68